sensor_id;sensor_type;location;lat;lon;timestamp;temperature;humidity
26623;DHT22;14254;50.968;5.366;2023-01-09T00:00:42;8.00;99.90
26623;DHT22;14254;50.968;5.366;2023-01-09T00:03:08;8.00;99.90
26623;DHT22;14254;50.968;5.366;2023-01-09T00:05:34;8.10;99.90
26623;DHT22;14254;50.968;5.366;2023-01-09T00:08:00;8.00;99.90
26623;DHT22;14254;50.968;5.366;2023-01-09T00:10:25;8.00;99.90
26623;DHT22;14254;50.968;5.366;2023-01-09T00:12:51;8.00;99.90
26623;DHT22;14254;50.968;5.366;2023-01-09T00:15:17;8.00;99.90
26623;DHT22;14254;50.968;5.366;2023-01-09T00:17:42;7.90;99.90
26623;DHT22;14254;50.968;5.366;2023-01-09T00:20:09;7.80;99.90
26623;DHT22;14254;50.968;5.366;2023-01-09T00:22:35;7.70;99.90
26623;DHT22;14254;50.968;5.366;2023-01-09T00:25:01;7.70;99.90
26623;DHT22;14254;50.968;5.366;2023-01-09T00:27:30;7.80;99.90
26623;DHT22;14254;50.968;5.366;2023-01-09T00:29:57;7.90;99.90
26623;DHT22;14254;50.968;5.366;2023-01-09T00:32:22;7.80;99.90
26623;DHT22;14254;50.968;5.366;2023-01-09T00:34:48;7.70;99.90
26623;DHT22;14254;50.968;5.366;2023-01-09T00:37:14;7.60;99.90
26623;DHT22;14254;50.968;5.366;2023-01-09T00:39:41;7.50;99.90
26623;DHT22;14254;50.968;5.366;2023-01-09T00:42:12;7.50;99.90
26623;DHT22;14254;50.968;5.366;2023-01-09T00:44:47;7.50;99.90
26623;DHT22;14254;50.968;5.366;2023-01-09T00:47:18;7.50;99.90
26623;DHT22;14254;50.968;5.366;2023-01-09T00:49:45;7.50;99.90
26623;DHT22;14254;50.968;5.366;2023-01-09T00:52:12;7.60;99.90
26623;DHT22;14254;50.968;5.366;2023-01-09T00:54:39;7.50;99.90
26623;DHT22;14254;50.968;5.366;2023-01-09T00:57:06;7.60;99.90
26623;DHT22;14254;50.968;5.366;2023-01-09T00:59:31;7.50;99.90
26623;DHT22;14254;50.968;5.366;2023-01-09T01:01:57;7.40;99.90
26623;DHT22;14254;50.968;5.366;2023-01-09T01:04:23;7.40;99.90
26623;DHT22;14254;50.968;5.366;2023-01-09T01:07:07;7.50;99.90
26623;DHT22;14254;50.968;5.366;2023-01-09T01:09:51;7.50;99.90
26623;DHT22;14254;50.968;5.366;2023-01-09T01:12:17;7.60;99.90
26623;DHT22;14254;50.968;5.366;2023-01-09T01:14:43;7.60;99.90
26623;DHT22;14254;50.968;5.366;2023-01-09T01:17:08;7.40;99.90
26623;DHT22;14254;50.968;5.366;2023-01-09T01:19:34;7.40;99.90
26623;DHT22;14254;50.968;5.366;2023-01-09T01:22:01;7.40;99.90
26623;DHT22;14254;50.968;5.366;2023-01-09T01:24:27;7.40;99.90
26623;DHT22;14254;50.968;5.366;2023-01-09T01:26:53;7.30;99.90
26623;DHT22;14254;50.968;5.366;2023-01-09T01:29:18;7.40;99.90
26623;DHT22;14254;50.968;5.366;2023-01-09T01:31:44;7.60;99.90
26623;DHT22;14254;50.968;5.366;2023-01-09T01:34:10;7.60;99.90
26623;DHT22;14254;50.968;5.366;2023-01-09T01:36:35;7.50;99.90
26623;DHT22;14254;50.968;5.366;2023-01-09T01:39:01;7.50;99.90
26623;DHT22;14254;50.968;5.366;2023-01-09T01:41:27;7.40;99.90
26623;DHT22;14254;50.968;5.366;2023-01-09T01:43:56;7.30;99.90
26623;DHT22;14254;50.968;5.366;2023-01-09T01:46:23;7.30;99.90
26623;DHT22;14254;50.968;5.366;2023-01-09T01:49:02;7.30;99.90
26623;DHT22;14254;50.968;5.366;2023-01-09T01:51:32;7.30;99.90
26623;DHT22;14254;50.968;5.366;2023-01-09T01:54:02;7.20;99.90
26623;DHT22;14254;50.968;5.366;2023-01-09T01:56:40;7.10;99.90
26623;DHT22;14254;50.968;5.366;2023-01-09T01:59:20;7.20;99.90
26623;DHT22;14254;50.968;5.366;2023-01-09T02:01:53;7.20;99.90
26623;DHT22;14254;50.968;5.366;2023-01-09T02:04:19;7.20;99.90
26623;DHT22;14254;50.968;5.366;2023-01-09T02:06:47;7.10;99.90
26623;DHT22;14254;50.968;5.366;2023-01-09T02:09:14;7.10;99.90
26623;DHT22;14254;50.968;5.366;2023-01-09T02:11:46;7.10;99.90
26623;DHT22;14254;50.968;5.366;2023-01-09T02:14:13;7.10;99.90
26623;DHT22;14254;50.968;5.366;2023-01-09T02:25:13;6.90;99.90
26623;DHT22;14254;50.968;5.366;2023-01-09T02:28:12;6.90;99.90
26623;DHT22;14254;50.968;5.366;2023-01-09T02:30:50;6.90;99.90
26623;DHT22;14254;50.968;5.366;2023-01-09T02:41:59;6.90;99.90
26623;DHT22;14254;50.968;5.366;2023-01-09T02:44:32;6.80;99.90
26623;DHT22;14254;50.968;5.366;2023-01-09T02:49:58;6.60;99.90
26623;DHT22;14254;50.968;5.366;2023-01-09T02:55:34;6.60;99.90
26623;DHT22;14254;50.968;5.366;2023-01-09T03:00:36;6.50;99.90
26623;DHT22;14254;50.968;5.366;2023-01-09T03:03:10;6.50;99.90
26623;DHT22;14254;50.968;5.366;2023-01-09T03:05:44;6.60;99.90
26623;DHT22;14254;50.968;5.366;2023-01-09T03:08:18;6.50;99.90
26623;DHT22;14254;50.968;5.366;2023-01-09T03:13:23;6.60;99.90
26623;DHT22;14254;50.968;5.366;2023-01-09T03:15:52;6.70;99.90
26623;DHT22;14254;50.968;5.366;2023-01-09T03:18:22;6.80;99.90
26623;DHT22;14254;50.968;5.366;2023-01-09T03:20:50;6.90;99.90
26623;DHT22;14254;50.968;5.366;2023-01-09T03:23:17;6.90;99.90
26623;DHT22;14254;50.968;5.366;2023-01-09T03:25:42;6.90;99.90
26623;DHT22;14254;50.968;5.366;2023-01-09T03:28:18;7.00;99.90
26623;DHT22;14254;50.968;5.366;2023-01-09T03:30:45;6.90;99.90
26623;DHT22;14254;50.968;5.366;2023-01-09T03:33:10;7.00;99.90
26623;DHT22;14254;50.968;5.366;2023-01-09T03:35:36;7.10;99.90
26623;DHT22;14254;50.968;5.366;2023-01-09T03:38:02;7.10;99.90
26623;DHT22;14254;50.968;5.366;2023-01-09T03:40:28;7.10;99.90
26623;DHT22;14254;50.968;5.366;2023-01-09T03:42:54;7.20;99.90
26623;DHT22;14254;50.968;5.366;2023-01-09T03:45:19;7.20;99.90
26623;DHT22;14254;50.968;5.366;2023-01-09T03:47:45;7.30;99.90
26623;DHT22;14254;50.968;5.366;2023-01-09T03:50:10;7.30;99.90
26623;DHT22;14254;50.968;5.366;2023-01-09T03:52:36;7.30;99.90
26623;DHT22;14254;50.968;5.366;2023-01-09T03:55:02;7.30;99.90
26623;DHT22;14254;50.968;5.366;2023-01-09T03:57:28;7.50;99.90
26623;DHT22;14254;50.968;5.366;2023-01-09T03:59:53;7.50;99.90
26623;DHT22;14254;50.968;5.366;2023-01-09T04:02:19;7.50;99.90
26623;DHT22;14254;50.968;5.366;2023-01-09T04:04:45;7.60;99.90
26623;DHT22;14254;50.968;5.366;2023-01-09T04:07:10;7.60;99.90
26623;DHT22;14254;50.968;5.366;2023-01-09T04:09:36;7.50;99.90
26623;DHT22;14254;50.968;5.366;2023-01-09T04:12:02;7.70;99.90
26623;DHT22;14254;50.968;5.366;2023-01-09T04:14:27;7.60;99.90
26623;DHT22;14254;50.968;5.366;2023-01-09T04:16:53;7.70;99.90
26623;DHT22;14254;50.968;5.366;2023-01-09T04:19:19;7.70;99.90
26623;DHT22;14254;50.968;5.366;2023-01-09T04:21:44;7.70;99.90
26623;DHT22;14254;50.968;5.366;2023-01-09T04:24:10;7.70;99.90
26623;DHT22;14254;50.968;5.366;2023-01-09T04:26:36;7.80;99.90
26623;DHT22;14254;50.968;5.366;2023-01-09T04:29:01;7.70;99.90
26623;DHT22;14254;50.968;5.366;2023-01-09T04:31:27;7.90;99.90
26623;DHT22;14254;50.968;5.366;2023-01-09T04:33:53;7.90;99.90
26623;DHT22;14254;50.968;5.366;2023-01-09T04:36:18;7.90;99.90
26623;DHT22;14254;50.968;5.366;2023-01-09T04:38:44;7.80;99.90
26623;DHT22;14254;50.968;5.366;2023-01-09T04:41:10;7.90;99.90
26623;DHT22;14254;50.968;5.366;2023-01-09T04:43:55;7.90;99.90
26623;DHT22;14254;50.968;5.366;2023-01-09T04:46:21;8.00;99.90
26623;DHT22;14254;50.968;5.366;2023-01-09T04:48:46;7.90;99.90
26623;DHT22;14254;50.968;5.366;2023-01-09T04:51:12;7.90;99.90
26623;DHT22;14254;50.968;5.366;2023-01-09T04:53:38;7.90;99.90
26623;DHT22;14254;50.968;5.366;2023-01-09T04:56:04;7.90;99.90
26623;DHT22;14254;50.968;5.366;2023-01-09T04:58:29;7.90;99.90
26623;DHT22;14254;50.968;5.366;2023-01-09T05:00:55;7.80;99.90
26623;DHT22;14254;50.968;5.366;2023-01-09T05:03:20;7.80;99.90
26623;DHT22;14254;50.968;5.366;2023-01-09T05:05:46;8.00;99.90
26623;DHT22;14254;50.968;5.366;2023-01-09T05:08:12;8.00;99.90
26623;DHT22;14254;50.968;5.366;2023-01-09T05:10:37;7.90;99.90
26623;DHT22;14254;50.968;5.366;2023-01-09T05:13:03;7.90;99.90
26623;DHT22;14254;50.968;5.366;2023-01-09T05:15:29;7.90;99.90
26623;DHT22;14254;50.968;5.366;2023-01-09T05:17:55;8.00;99.90
26623;DHT22;14254;50.968;5.366;2023-01-09T05:20:21;8.00;99.90
26623;DHT22;14254;50.968;5.366;2023-01-09T05:22:46;8.10;99.90
26623;DHT22;14254;50.968;5.366;2023-01-09T05:25:12;8.10;99.90
26623;DHT22;14254;50.968;5.366;2023-01-09T05:27:38;8.10;99.90
26623;DHT22;14254;50.968;5.366;2023-01-09T05:30:03;8.20;99.90
26623;DHT22;14254;50.968;5.366;2023-01-09T05:32:29;8.30;99.90
26623;DHT22;14254;50.968;5.366;2023-01-09T05:34:55;8.30;99.90
26623;DHT22;14254;50.968;5.366;2023-01-09T05:37:20;8.40;99.90
26623;DHT22;14254;50.968;5.366;2023-01-09T05:39:46;8.40;99.90
26623;DHT22;14254;50.968;5.366;2023-01-09T05:42:12;8.40;99.90
26623;DHT22;14254;50.968;5.366;2023-01-09T05:44:37;8.30;99.90
26623;DHT22;14254;50.968;5.366;2023-01-09T05:47:03;8.40;99.90
26623;DHT22;14254;50.968;5.366;2023-01-09T05:49:29;8.30;99.90
26623;DHT22;14254;50.968;5.366;2023-01-09T05:51:54;8.30;99.90
26623;DHT22;14254;50.968;5.366;2023-01-09T05:54:20;8.40;99.90
26623;DHT22;14254;50.968;5.366;2023-01-09T05:56:46;8.40;99.90
26623;DHT22;14254;50.968;5.366;2023-01-09T05:59:11;8.40;99.90
26623;DHT22;14254;50.968;5.366;2023-01-09T06:01:37;8.40;99.90
26623;DHT22;14254;50.968;5.366;2023-01-09T06:04:03;8.50;99.90
26623;DHT22;14254;50.968;5.366;2023-01-09T06:06:28;8.50;99.90
26623;DHT22;14254;50.968;5.366;2023-01-09T06:08:54;8.50;99.90
26623;DHT22;14254;50.968;5.366;2023-01-09T06:11:20;8.50;99.90
26623;DHT22;14254;50.968;5.366;2023-01-09T06:13:45;8.60;99.90
26623;DHT22;14254;50.968;5.366;2023-01-09T06:16:11;8.60;99.90
26623;DHT22;14254;50.968;5.366;2023-01-09T06:18:38;8.70;99.90
26623;DHT22;14254;50.968;5.366;2023-01-09T06:21:04;8.60;99.90
26623;DHT22;14254;50.968;5.366;2023-01-09T06:23:30;8.60;99.90
26623;DHT22;14254;50.968;5.366;2023-01-09T06:25:55;8.60;99.90
26623;DHT22;14254;50.968;5.366;2023-01-09T06:28:21;8.60;99.90
26623;DHT22;14254;50.968;5.366;2023-01-09T06:30:51;8.60;99.90
26623;DHT22;14254;50.968;5.366;2023-01-09T06:33:17;8.60;99.90
26623;DHT22;14254;50.968;5.366;2023-01-09T06:35:43;8.60;99.90
26623;DHT22;14254;50.968;5.366;2023-01-09T06:38:08;8.70;99.90
26623;DHT22;14254;50.968;5.366;2023-01-09T06:40:34;8.60;99.90
26623;DHT22;14254;50.968;5.366;2023-01-09T06:43:00;8.70;99.90
26623;DHT22;14254;50.968;5.366;2023-01-09T06:45:26;8.70;99.90
26623;DHT22;14254;50.968;5.366;2023-01-09T06:47:51;8.70;99.90
26623;DHT22;14254;50.968;5.366;2023-01-09T06:50:17;8.60;99.90
26623;DHT22;14254;50.968;5.366;2023-01-09T06:52:43;8.50;99.90
26623;DHT22;14254;50.968;5.366;2023-01-09T06:55:09;8.60;99.90
26623;DHT22;14254;50.968;5.366;2023-01-09T06:57:34;8.60;99.90
26623;DHT22;14254;50.968;5.366;2023-01-09T07:00:00;8.60;99.90
26623;DHT22;14254;50.968;5.366;2023-01-09T07:02:26;8.60;99.90
26623;DHT22;14254;50.968;5.366;2023-01-09T07:04:52;8.70;99.90
26623;DHT22;14254;50.968;5.366;2023-01-09T07:07:17;8.70;99.90
26623;DHT22;14254;50.968;5.366;2023-01-09T07:09:44;8.70;99.90
26623;DHT22;14254;50.968;5.366;2023-01-09T07:12:10;8.70;99.90
26623;DHT22;14254;50.968;5.366;2023-01-09T07:14:37;8.70;99.90
26623;DHT22;14254;50.968;5.366;2023-01-09T07:17:02;8.70;99.90
26623;DHT22;14254;50.968;5.366;2023-01-09T07:19:28;8.70;99.90
26623;DHT22;14254;50.968;5.366;2023-01-09T07:21:54;8.70;99.90
26623;DHT22;14254;50.968;5.366;2023-01-09T07:24:19;8.70;99.90
26623;DHT22;14254;50.968;5.366;2023-01-09T07:26:45;8.70;99.90
26623;DHT22;14254;50.968;5.366;2023-01-09T07:29:10;8.80;99.90
26623;DHT22;14254;50.968;5.366;2023-01-09T07:31:37;8.80;99.90
26623;DHT22;14254;50.968;5.366;2023-01-09T07:34:03;8.90;99.90
26623;DHT22;14254;50.968;5.366;2023-01-09T07:36:29;8.80;99.90
26623;DHT22;14254;50.968;5.366;2023-01-09T07:38:54;8.80;99.90
26623;DHT22;14254;50.968;5.366;2023-01-09T07:41:20;8.70;99.90
26623;DHT22;14254;50.968;5.366;2023-01-09T07:43:46;8.60;99.90
26623;DHT22;14254;50.968;5.366;2023-01-09T07:46:12;8.60;99.90
26623;DHT22;14254;50.968;5.366;2023-01-09T07:48:37;8.60;99.90
26623;DHT22;14254;50.968;5.366;2023-01-09T07:51:03;8.70;99.90
26623;DHT22;14254;50.968;5.366;2023-01-09T07:53:29;8.80;99.90
26623;DHT22;14254;50.968;5.366;2023-01-09T07:55:54;8.80;99.90
26623;DHT22;14254;50.968;5.366;2023-01-09T07:58:20;8.90;99.90
26623;DHT22;14254;50.968;5.366;2023-01-09T08:00:46;9.00;99.90
26623;DHT22;14254;50.968;5.366;2023-01-09T08:03:11;9.00;99.90
26623;DHT22;14254;50.968;5.366;2023-01-09T08:05:37;9.00;99.90
26623;DHT22;14254;50.968;5.366;2023-01-09T08:08:03;9.00;99.90
26623;DHT22;14254;50.968;5.366;2023-01-09T08:10:28;9.00;99.90
26623;DHT22;14254;50.968;5.366;2023-01-09T08:12:54;9.00;99.90
26623;DHT22;14254;50.968;5.366;2023-01-09T08:15:20;9.00;99.90
26623;DHT22;14254;50.968;5.366;2023-01-09T08:17:45;9.00;99.90
26623;DHT22;14254;50.968;5.366;2023-01-09T08:20:13;9.00;99.90
26623;DHT22;14254;50.968;5.366;2023-01-09T08:22:41;8.90;99.90
26623;DHT22;14254;50.968;5.366;2023-01-09T08:25:07;8.90;99.90
26623;DHT22;14254;50.968;5.366;2023-01-09T08:27:33;8.80;99.90
26623;DHT22;14254;50.968;5.366;2023-01-09T08:29:59;8.90;99.90
26623;DHT22;14254;50.968;5.366;2023-01-09T08:32:25;8.90;99.90
26623;DHT22;14254;50.968;5.366;2023-01-09T08:34:51;8.90;99.90
26623;DHT22;14254;50.968;5.366;2023-01-09T08:37:17;9.00;99.90
26623;DHT22;14254;50.968;5.366;2023-01-09T08:39:42;9.10;99.90
26623;DHT22;14254;50.968;5.366;2023-01-09T08:42:08;9.00;99.90
26623;DHT22;14254;50.968;5.366;2023-01-09T08:44:52;9.00;99.90
26623;DHT22;14254;50.968;5.366;2023-01-09T08:47:36;9.00;99.90
26623;DHT22;14254;50.968;5.366;2023-01-09T08:50:02;9.00;99.90
26623;DHT22;14254;50.968;5.366;2023-01-09T08:52:29;9.00;99.90
26623;DHT22;14254;50.968;5.366;2023-01-09T08:54:55;9.20;99.90
26623;DHT22;14254;50.968;5.366;2023-01-09T08:57:21;9.30;99.90
26623;DHT22;14254;50.968;5.366;2023-01-09T08:59:47;9.40;99.90
26623;DHT22;14254;50.968;5.366;2023-01-09T09:02:13;9.50;99.90
26623;DHT22;14254;50.968;5.366;2023-01-09T09:04:38;9.50;99.90
26623;DHT22;14254;50.968;5.366;2023-01-09T09:07:04;9.50;99.90
26623;DHT22;14254;50.968;5.366;2023-01-09T09:09:30;9.50;99.90
26623;DHT22;14254;50.968;5.366;2023-01-09T09:11:56;9.50;99.90
26623;DHT22;14254;50.968;5.366;2023-01-09T09:14:22;9.50;99.90
26623;DHT22;14254;50.968;5.366;2023-01-09T09:17:06;9.50;99.90
26623;DHT22;14254;50.968;5.366;2023-01-09T09:19:32;9.40;99.90
26623;DHT22;14254;50.968;5.366;2023-01-09T09:21:57;9.30;99.90
26623;DHT22;14254;50.968;5.366;2023-01-09T09:24:23;9.30;99.90
26623;DHT22;14254;50.968;5.366;2023-01-09T09:26:49;9.40;99.90
26623;DHT22;14254;50.968;5.366;2023-01-09T09:29:14;9.50;99.90
26623;DHT22;14254;50.968;5.366;2023-01-09T09:31:40;9.40;99.90
26623;DHT22;14254;50.968;5.366;2023-01-09T09:34:06;9.40;99.90
26623;DHT22;14254;50.968;5.366;2023-01-09T09:36:32;9.30;99.90
26623;DHT22;14254;50.968;5.366;2023-01-09T09:38:58;9.30;99.90
26623;DHT22;14254;50.968;5.366;2023-01-09T09:47:43;9.30;99.90
26623;DHT22;14254;50.968;5.366;2023-01-09T09:55:36;9.10;99.90
26623;DHT22;14254;50.968;5.366;2023-01-09T10:00:55;9.00;99.90
26623;DHT22;14254;50.968;5.366;2023-01-09T10:03:57;9.20;99.90
26623;DHT22;14254;50.968;5.366;2023-01-09T10:06:31;9.20;99.90
26623;DHT22;14254;50.968;5.366;2023-01-09T10:11:49;9.20;99.90
26623;DHT22;14254;50.968;5.366;2023-01-09T10:14:17;9.10;99.90
26623;DHT22;14254;50.968;5.366;2023-01-09T10:25:19;9.10;99.90
26623;DHT22;14254;50.968;5.366;2023-01-09T10:27:58;9.10;99.90
26623;DHT22;14254;50.968;5.366;2023-01-09T10:30:49;9.10;99.90
26623;DHT22;14254;50.968;5.366;2023-01-09T10:38:35;9.10;99.90
26623;DHT22;14254;50.968;5.366;2023-01-09T10:41:48;9.10;99.90
26623;DHT22;14254;50.968;5.366;2023-01-09T10:44:42;9.10;99.90
26623;DHT22;14254;50.968;5.366;2023-01-09T10:47:29;9.10;99.90
26623;DHT22;14254;50.968;5.366;2023-01-09T10:49:56;9.00;99.90
26623;DHT22;14254;50.968;5.366;2023-01-09T10:52:35;9.00;99.90
26623;DHT22;14254;50.968;5.366;2023-01-09T10:57:58;8.90;99.90
26623;DHT22;14254;50.968;5.366;2023-01-09T11:00:25;9.00;99.90
26623;DHT22;14254;50.968;5.366;2023-01-09T11:02:52;9.00;99.90
26623;DHT22;14254;50.968;5.366;2023-01-09T11:05:25;9.00;99.90
26623;DHT22;14254;50.968;5.366;2023-01-09T11:07:59;9.10;99.90
26623;DHT22;14254;50.968;5.366;2023-01-09T11:10:49;9.00;99.90
26623;DHT22;14254;50.968;5.366;2023-01-09T11:13:21;8.80;99.90
26623;DHT22;14254;50.968;5.366;2023-01-09T11:18:25;9.00;99.90
26623;DHT22;14254;50.968;5.366;2023-01-09T11:20:52;8.90;99.90
26623;DHT22;14254;50.968;5.366;2023-01-09T11:23:35;9.00;99.90
26623;DHT22;14254;50.968;5.366;2023-01-09T11:26:02;9.10;99.90
26623;DHT22;14254;50.968;5.366;2023-01-09T11:28:28;9.20;99.90
26623;DHT22;14254;50.968;5.366;2023-01-09T11:30:59;9.20;99.90
26623;DHT22;14254;50.968;5.366;2023-01-09T11:33:36;9.30;99.90
26623;DHT22;14254;50.968;5.366;2023-01-09T11:36:12;9.50;99.90
26623;DHT22;14254;50.968;5.366;2023-01-09T11:38:58;9.60;99.90
26623;DHT22;14254;50.968;5.366;2023-01-09T11:41:30;9.70;99.90
26623;DHT22;14254;50.968;5.366;2023-01-09T11:43:57;9.80;99.90
26623;DHT22;14254;50.968;5.366;2023-01-09T11:49:04;10.40;99.90
26623;DHT22;14254;50.968;5.366;2023-01-09T11:51:34;10.50;99.90
26623;DHT22;14254;50.968;5.366;2023-01-09T11:56:48;10.50;99.90
26623;DHT22;14254;50.968;5.366;2023-01-09T11:59:20;10.40;99.90
26623;DHT22;14254;50.968;5.366;2023-01-09T12:16:38;9.70;99.90
26623;DHT22;14254;50.968;5.366;2023-01-09T12:19:15;9.50;99.90
26623;DHT22;14254;50.968;5.366;2023-01-09T12:21:45;9.30;99.90
26623;DHT22;14254;50.968;5.366;2023-01-09T12:32:26;9.30;99.90
26623;DHT22;14254;50.968;5.366;2023-01-09T12:51:57;9.50;99.90
26623;DHT22;14254;50.968;5.366;2023-01-09T12:54:34;9.60;99.90
26623;DHT22;14254;50.968;5.366;2023-01-09T12:57:26;9.50;99.90
26623;DHT22;14254;50.968;5.366;2023-01-09T13:00:23;9.40;99.90
26623;DHT22;14254;50.968;5.366;2023-01-09T13:05:32;9.30;99.90
26623;DHT22;14254;50.968;5.366;2023-01-09T13:08:17;9.20;99.90
26623;DHT22;14254;50.968;5.366;2023-01-09T13:10:55;9.30;99.90
26623;DHT22;14254;50.968;5.366;2023-01-09T13:13:52;9.50;99.90
26623;DHT22;14254;50.968;5.366;2023-01-09T13:16:31;9.80;99.90
26623;DHT22;14254;50.968;5.366;2023-01-09T13:21:33;10.00;99.90
26623;DHT22;14254;50.968;5.366;2023-01-09T13:26:39;9.80;99.90
26623;DHT22;14254;50.968;5.366;2023-01-09T13:34:23;9.90;99.90
26623;DHT22;14254;50.968;5.366;2023-01-09T13:36:53;9.80;99.90
26623;DHT22;14254;50.968;5.366;2023-01-09T13:39:28;9.80;99.90
26623;DHT22;14254;50.968;5.366;2023-01-09T13:41:59;9.60;99.90
26623;DHT22;14254;50.968;5.366;2023-01-09T13:44:45;9.40;99.90
26623;DHT22;14254;50.968;5.366;2023-01-09T13:47:23;9.50;99.90
26623;DHT22;14254;50.968;5.366;2023-01-09T13:59:45;9.50;99.90
26623;DHT22;14254;50.968;5.366;2023-01-09T14:05:10;9.30;99.90
26623;DHT22;14254;50.968;5.366;2023-01-09T14:10:24;9.20;99.90
26623;DHT22;14254;50.968;5.366;2023-01-09T14:12:53;9.10;99.90
26623;DHT22;14254;50.968;5.366;2023-01-09T14:18:05;9.20;99.90
26623;DHT22;14254;50.968;5.366;2023-01-09T14:20:42;9.20;99.90
26623;DHT22;14254;50.968;5.366;2023-01-09T14:23:22;9.20;99.90
26623;DHT22;14254;50.968;5.366;2023-01-09T14:25:50;9.20;99.90
26623;DHT22;14254;50.968;5.366;2023-01-09T14:28:22;9.20;99.90
26623;DHT22;14254;50.968;5.366;2023-01-09T14:35:53;9.30;99.90
26623;DHT22;14254;50.968;5.366;2023-01-09T14:38:46;9.50;99.90
26623;DHT22;14254;50.968;5.366;2023-01-09T14:41:29;9.80;99.90
26623;DHT22;14254;50.968;5.366;2023-01-09T14:44:32;10.20;99.90
26623;DHT22;14254;50.968;5.366;2023-01-09T14:47:13;10.40;99.90
26623;DHT22;14254;50.968;5.366;2023-01-09T14:49:43;10.30;99.90
26623;DHT22;14254;50.968;5.366;2023-01-09T14:55:23;9.90;99.90
26623;DHT22;14254;50.968;5.366;2023-01-09T14:57:51;9.90;99.90
26623;DHT22;14254;50.968;5.366;2023-01-09T15:00:20;9.80;99.90
26623;DHT22;14254;50.968;5.366;2023-01-09T15:02:47;9.70;99.90
26623;DHT22;14254;50.968;5.366;2023-01-09T15:05:16;9.60;99.90
26623;DHT22;14254;50.968;5.366;2023-01-09T15:07:53;9.60;99.90
26623;DHT22;14254;50.968;5.366;2023-01-09T15:10:24;9.60;99.90
26623;DHT22;14254;50.968;5.366;2023-01-09T15:12:52;9.50;99.90
26623;DHT22;14254;50.968;5.366;2023-01-09T15:15:20;9.60;99.90
26623;DHT22;14254;50.968;5.366;2023-01-09T15:17:53;9.60;99.90
26623;DHT22;14254;50.968;5.366;2023-01-09T15:20:23;9.50;99.90
26623;DHT22;14254;50.968;5.366;2023-01-09T15:22:51;9.50;99.90
26623;DHT22;14254;50.968;5.366;2023-01-09T15:27:52;9.50;99.90
26623;DHT22;14254;50.968;5.366;2023-01-09T15:30:28;9.50;99.90
26623;DHT22;14254;50.968;5.366;2023-01-09T15:33:11;9.50;99.90
26623;DHT22;14254;50.968;5.366;2023-01-09T15:35:45;9.40;99.90
26623;DHT22;14254;50.968;5.366;2023-01-09T15:38:16;9.30;99.90
26623;DHT22;14254;50.968;5.366;2023-01-09T15:40:43;9.30;99.90
26623;DHT22;14254;50.968;5.366;2023-01-09T15:43:16;9.50;99.90
26623;DHT22;14254;50.968;5.366;2023-01-09T15:45:44;9.40;99.90
26623;DHT22;14254;50.968;5.366;2023-01-09T15:48:27;9.30;99.90
26623;DHT22;14254;50.968;5.366;2023-01-09T15:51:03;9.40;99.90
26623;DHT22;14254;50.968;5.366;2023-01-09T15:53:29;9.30;99.90
26623;DHT22;14254;50.968;5.366;2023-01-09T15:56:12;9.20;99.90
26623;DHT22;14254;50.968;5.366;2023-01-09T15:58:45;8.90;99.90
26623;DHT22;14254;50.968;5.366;2023-01-09T16:01:33;8.80;99.90
26623;DHT22;14254;50.968;5.366;2023-01-09T16:06:41;8.70;99.90
26623;DHT22;14254;50.968;5.366;2023-01-09T16:09:17;8.50;99.90
26623;DHT22;14254;50.968;5.366;2023-01-09T16:11:49;8.40;99.90
26623;DHT22;14254;50.968;5.366;2023-01-09T16:14:35;8.50;99.90
26623;DHT22;14254;50.968;5.366;2023-01-09T16:17:15;8.50;99.90
26623;DHT22;14254;50.968;5.366;2023-01-09T16:20:14;8.50;99.90
26623;DHT22;14254;50.968;5.366;2023-01-09T16:22:54;8.40;99.90
26623;DHT22;14254;50.968;5.366;2023-01-09T16:25:22;8.50;99.90
26623;DHT22;14254;50.968;5.366;2023-01-09T16:28:08;8.40;99.90
26623;DHT22;14254;50.968;5.366;2023-01-09T16:30:50;8.30;99.90
26623;DHT22;14254;50.968;5.366;2023-01-09T16:33:22;8.30;99.90
26623;DHT22;14254;50.968;5.366;2023-01-09T16:35:49;8.20;99.90
26623;DHT22;14254;50.968;5.366;2023-01-09T16:38:15;8.20;99.90
26623;DHT22;14254;50.968;5.366;2023-01-09T16:41:03;8.20;99.90
26623;DHT22;14254;50.968;5.366;2023-01-09T16:43:48;8.20;99.90
26623;DHT22;14254;50.968;5.366;2023-01-09T16:46:15;8.20;99.90
26623;DHT22;14254;50.968;5.366;2023-01-09T16:48:42;8.20;99.90
26623;DHT22;14254;50.968;5.366;2023-01-09T16:51:19;8.10;99.90
26623;DHT22;14254;50.968;5.366;2023-01-09T16:53:46;8.10;99.90
26623;DHT22;14254;50.968;5.366;2023-01-09T16:56:20;8.10;99.90
26623;DHT22;14254;50.968;5.366;2023-01-09T16:58:47;8.00;99.90
26623;DHT22;14254;50.968;5.366;2023-01-09T17:01:13;7.90;99.90
26623;DHT22;14254;50.968;5.366;2023-01-09T17:03:40;7.80;99.90
26623;DHT22;14254;50.968;5.366;2023-01-09T17:06:09;7.70;99.90
26623;DHT22;14254;50.968;5.366;2023-01-09T17:08:39;7.70;99.90
26623;DHT22;14254;50.968;5.366;2023-01-09T17:11:05;7.70;99.90
26623;DHT22;14254;50.968;5.366;2023-01-09T17:13:31;7.70;99.90
26623;DHT22;14254;50.968;5.366;2023-01-09T17:15:58;7.80;99.90
26623;DHT22;14254;50.968;5.366;2023-01-09T17:18:25;7.80;99.90
26623;DHT22;14254;50.968;5.366;2023-01-09T17:20:53;7.90;99.90
26623;DHT22;14254;50.968;5.366;2023-01-09T17:23:20;7.90;99.90
26623;DHT22;14254;50.968;5.366;2023-01-09T17:25:48;7.90;99.90
26623;DHT22;14254;50.968;5.366;2023-01-09T17:28:34;7.90;99.90
26623;DHT22;14254;50.968;5.366;2023-01-09T17:31:09;7.90;99.90
26623;DHT22;14254;50.968;5.366;2023-01-09T17:33:37;8.00;99.90
26623;DHT22;14254;50.968;5.366;2023-01-09T17:36:06;8.10;99.90
26623;DHT22;14254;50.968;5.366;2023-01-09T17:38:33;8.10;99.90
26623;DHT22;14254;50.968;5.366;2023-01-09T17:40:58;8.00;99.90
26623;DHT22;14254;50.968;5.366;2023-01-09T17:43:24;8.00;99.90
26623;DHT22;14254;50.968;5.366;2023-01-09T17:45:50;8.00;99.90
26623;DHT22;14254;50.968;5.366;2023-01-09T17:48:18;7.90;99.90
26623;DHT22;14254;50.968;5.366;2023-01-09T17:50:46;7.80;99.90
26623;DHT22;14254;50.968;5.366;2023-01-09T17:53:12;7.90;99.90
26623;DHT22;14254;50.968;5.366;2023-01-09T17:55:39;7.90;99.90
26623;DHT22;14254;50.968;5.366;2023-01-09T17:58:06;7.80;99.90
26623;DHT22;14254;50.968;5.366;2023-01-09T18:00:34;7.70;99.90
26623;DHT22;14254;50.968;5.366;2023-01-09T18:03:02;7.70;99.90
26623;DHT22;14254;50.968;5.366;2023-01-09T18:05:28;7.80;99.90
26623;DHT22;14254;50.968;5.366;2023-01-09T18:07:54;7.70;99.90
26623;DHT22;14254;50.968;5.366;2023-01-09T18:10:22;7.70;99.90
26623;DHT22;14254;50.968;5.366;2023-01-09T18:12:53;7.80;99.90
26623;DHT22;14254;50.968;5.366;2023-01-09T18:15:20;7.90;99.90
26623;DHT22;14254;50.968;5.366;2023-01-09T18:17:47;7.80;99.90
26623;DHT22;14254;50.968;5.366;2023-01-09T18:20:13;7.80;99.90
26623;DHT22;14254;50.968;5.366;2023-01-09T18:22:39;7.90;99.90
26623;DHT22;14254;50.968;5.366;2023-01-09T18:25:05;7.90;99.90
26623;DHT22;14254;50.968;5.366;2023-01-09T18:27:35;7.80;99.90
26623;DHT22;14254;50.968;5.366;2023-01-09T18:30:01;7.90;99.90
26623;DHT22;14254;50.968;5.366;2023-01-09T18:32:27;7.70;99.90
26623;DHT22;14254;50.968;5.366;2023-01-09T18:34:53;7.70;99.90